Maersk Vallvik — 9V8839 — position and weather

sailwx.info

Track history (hours):
 
Tides and Currents Weather Stations Pressure Air Temp Water Temp Dewpoint Dewpoint Depression Visibility Wind Speed Wind Dir Waves Ship Positions

Maersk Vallvik

Last reported at 2016-Jun-09 07:33 UTC. Time now 2016-Jun-28 16:59 UTC.
Position N 26°31' W 078°59'.
Warning: this ship's position is 19 days out of date.

Length 180 m; draft 8.9 m.

Type: Ship (hazmat cat A). MMSI: 564837000.

Date/timePositionNaut miles runAvg speedWind from/ knotsBaromVisibWave heightAir tempDewpointWater temp
2016-Jun-09 07:33N 26°31' W 078°59'1 0.9
2016-Jun-09 06:34N 26°30' W 078°60'22 0.7
2016-Jun-08 00:06N 26°49' W 079°11'416 8.0
2016-Jun-05 20:09N 33°30' W 077°01'813.6
2016-Jun-05 19:33N 33°34' W 076°53'1514.9
2016-Jun-05 18:33N 33°40' W 076°37'1313.4
2016-Jun-05 17:33N 33°48' W 076°23'1312.7
2016-Jun-05 16:34N 33°57' W 076°13'1212.4
2016-Jun-05 15:34N 34°07' W 076°04'6810.5
2016-Jun-05 09:03N 34°59' W 075°11'5 7.5
2016-Jun-05 08:21N 35°03' W 075°07'7 7.5
2016-Jun-05 07:29N 35°09' W 075°02'3311.2
2016-Jun-05 04:34N 35°41' W 075°02'1212.2
2016-Jun-05 03:34N 35°54' W 075°02'6911.5
2016-Jun-04 21:33N 36°51' W 075°50'1111.4
2016-Jun-04 20:34N 36°57' W 076°02'1514.2
2016-Jun-04 19:32N 36°58' W 076°20'6 2.7
2016-Jun-04 17:29N 36°53' W 076°21'0 0.0
2016-Jun-04 16:32N 36°53' W 076°21'0 0.0
2016-Jun-04 15:32N 36°53' W 076°21'0 0.0
2016-Jun-04 14:32N 36°53' W 076°21'0 0.0
2016-Jun-04 13:32N 36°53' W 076°21'0 0.0
2016-Jun-04 12:32N 36°53' W 076°21'0 0.0
2016-Jun-04 11:26N 36°53' W 076°21'0 0.0
2016-Jun-04 10:32N 36°53' W 076°21'0 0.0
2016-Jun-04 09:33N 36°53' W 076°21'0 0.0
2016-Jun-04 08:33N 36°53' W 076°21'2 1.9
2016-Jun-04 07:33N 36°55' W 076°20'9 8.2
2016-Jun-04 06:26N 36°60' W 076°11'9 9.8
2016-Jun-04 05:33N 36°59' W 076°00'9816.2
2016-Jun-03 23:32N 38°34' W 076°26'1717.7
2016-Jun-03 22:33N 38°51' W 076°24'1515.5
2016-Jun-03 21:33N 39°07' W 076°24'1110.7
2016-Jun-03 20:33N 39°15' W 076°33'1 0.8
2016-Jun-03 19:32N 39°15' W 076°33'0 0.0
2016-Jun-03 18:32N 39°15' W 076°33'0 0.0
2016-Jun-03 17:32N 39°15' W 076°33'0 0.0
2016-Jun-03 16:32N 39°15' W 076°33'0 0.0
2016-Jun-03 15:32N 39°15' W 076°33'0 0.0
2016-Jun-03 14:32N 39°15' W 076°33'0 0.0
2016-Jun-03 13:32N 39°15' W 076°33'0 0.0
2016-Jun-03 12:33N 39°15' W 076°33'0 0.0
2016-Jun-03 11:33N 39°15' W 076°33'0 0.0
2016-Jun-03 10:34N 39°15' W 076°33'2 2.1
2016-Jun-03 09:33N 39°13' W 076°32'10 9.7
2016-Jun-03 08:33N 39°06' W 076°24'1514.8
2016-Jun-03 07:33N 38°51' W 076°24'1918.6
2016-Jun-03 06:33N 38°33' W 076°26'1919.1
2016-Jun-03 05:33N 38°15' W 076°16'1918.7
2016-Jun-03 04:33N 37°57' W 076°10'1817.9
2016-Jun-03 03:32N 37°39' W 076°08'1717.0
2016-Jun-03 02:33N 37°22' W 076°05'1918.0
2016-Jun-03 01:29N 37°03' W 076°05'1213.2
2016-Jun-03 00:33N 36°55' W 075°54'1110.8
2016-Jun-02 23:33N 36°49' W 075°42'10011.1
2016-Jun-02 14:28N 38°11' W 074°29'1312.8
2016-Jun-02 13:28N 38°22' W 074°20'1312.6
2016-Jun-02 12:23N 38°35' W 074°14'1112.5
2016-Jun-02 11:31N 38°46' W 074°11'1212.5
2016-Jun-02 10:33N 38°57' W 074°07'1312.6
2016-Jun-02 09:33N 39°09' W 074°00'1312.5
2016-Jun-02 08:33N 39°21' W 073°57'1312.5
2016-Jun-02 07:33N 39°33' W 073°54'1312.6
2016-Jun-02 06:33N 39°46' W 073°52'1312.5
2016-Jun-02 05:33N 39°58' W 073°50'1312.6
2016-Jun-02 04:34N 40°11' W 073°50'1212.4
2016-Jun-02 03:33N 40°23' W 073°49'1211.8
2016-Jun-02 02:34N 40°31' W 073°60'10 9.8
2016-Jun-02 01:32N 40°39' W 074°09'2 2.2
2016-Jun-02 00:26N 40°41' W 074°09'0 0.0
2016-Jun-01 23:23N 40°41' W 074°09'0 0.0
2016-Jun-01 21:32N 40°41' W 074°09'0 0.0
2016-Jun-01 20:29N 40°41' W 074°09'0 0.0
2016-Jun-01 19:33N 40°41' W 074°09'0 0.0
2016-Jun-01 18:33N 40°41' W 074°09'0 0.0
2016-Jun-01 17:33N 40°41' W 074°09'0 0.0
2016-Jun-01 16:33N 40°41' W 074°09'0 0.0
2016-Jun-01 15:33N 40°41' W 074°09'0 0.0
2016-Jun-01 14:33N 40°41' W 074°09'0 0.0
2016-Jun-01 13:33N 40°41' W 074°09'0 0.0
2016-Jun-01 12:33N 40°41' W 074°09'0 0.0
2016-Jun-01 11:33N 40°41' W 074°09'0 0.4
2016-Jun-01 10:33N 40°41' W 074°08'4 4.3
2016-Jun-01 09:34N 40°39' W 074°03'1211.9
2016-Jun-01 08:33N 40°29' W 073°54'9 9.3
2016-Jun-01 07:33N 40°24' W 073°44'1716.9
2016-Jun-01 06:33N 40°15' W 073°25'1818.1
2016-Jun-01 05:33N 40°02' W 073°08'1818.5
2016-Jun-01 04:33N 39°47' W 072°55'  
Track history (hours):
 
Tides and Currents Weather Stations Pressure Air Temp Water Temp Dewpoint Dewpoint Depression Visibility Wind Speed Wind Dir Waves Ship Positions

Maersk Vallvik

Last reported at 2016-Jun-09 07:33 UTC. Time now 2016-Jun-28 16:59 UTC.
Position N 26°31' W 078°59'.
Warning: this ship's position is 19 days out of date.

Length 180 m; draft 8.9 m.

Type: Ship (hazmat cat A). MMSI: 564837000.

Date/timePositionNaut miles runAvg speedWind from/ knotsBaromVisibWave heightAir tempDewpointWater temp
2016-Jun-09 07:33N 26°31' W 078°59'1 0.9
2016-Jun-09 06:34N 26°30' W 078°60'22 0.7
2016-Jun-08 00:06N 26°49' W 079°11'416 8.0
2016-Jun-05 20:09N 33°30' W 077°01'813.6
2016-Jun-05 19:33N 33°34' W 076°53'1514.9
2016-Jun-05 18:33N 33°40' W 076°37'1313.4
2016-Jun-05 17:33N 33°48' W 076°23'1312.7
2016-Jun-05 16:34N 33°57' W 076°13'1212.4
2016-Jun-05 15:34N 34°07' W 076°04'6810.5
2016-Jun-05 09:03N 34°59' W 075°11'5 7.5
2016-Jun-05 08:21N 35°03' W 075°07'7 7.5
2016-Jun-05 07:29N 35°09' W 075°02'3311.2
2016-Jun-05 04:34N 35°41' W 075°02'1212.2
2016-Jun-05 03:34N 35°54' W 075°02'6911.5
2016-Jun-04 21:33N 36°51' W 075°50'1111.4
2016-Jun-04 20:34N 36°57' W 076°02'1514.2
2016-Jun-04 19:32N 36°58' W 076°20'6 2.7
2016-Jun-04 17:29N 36°53' W 076°21'0 0.0
2016-Jun-04 16:32N 36°53' W 076°21'0 0.0
2016-Jun-04 15:32N 36°53' W 076°21'0 0.0
2016-Jun-04 14:32N 36°53' W 076°21'0 0.0
2016-Jun-04 13:32N 36°53' W 076°21'0 0.0
2016-Jun-04 12:32N 36°53' W 076°21'0 0.0
2016-Jun-04 11:26N 36°53' W 076°21'0 0.0
2016-Jun-04 10:32N 36°53' W 076°21'0 0.0
2016-Jun-04 09:33N 36°53' W 076°21'0 0.0
2016-Jun-04 08:33N 36°53' W 076°21'2 1.9
2016-Jun-04 07:33N 36°55' W 076°20'9 8.2
2016-Jun-04 06:26N 36°60' W 076°11'9 9.8
2016-Jun-04 05:33N 36°59' W 076°00'9816.2
2016-Jun-03 23:32N 38°34' W 076°26'1717.7
2016-Jun-03 22:33N 38°51' W 076°24'1515.5
2016-Jun-03 21:33N 39°07' W 076°24'1110.7
2016-Jun-03 20:33N 39°15' W 076°33'1 0.8
2016-Jun-03 19:32N 39°15' W 076°33'0 0.0
2016-Jun-03 18:32N 39°15' W 076°33'0 0.0
2016-Jun-03 17:32N 39°15' W 076°33'0 0.0
2016-Jun-03 16:32N 39°15' W 076°33'0 0.0
2016-Jun-03 15:32N 39°15' W 076°33'0 0.0
2016-Jun-03 14:32N 39°15' W 076°33'0 0.0
2016-Jun-03 13:32N 39°15' W 076°33'0 0.0
2016-Jun-03 12:33N 39°15' W 076°33'0 0.0
2016-Jun-03 11:33N 39°15' W 076°33'0 0.0
2016-Jun-03 10:34N 39°15' W 076°33'2 2.1
2016-Jun-03 09:33N 39°13' W 076°32'10 9.7
2016-Jun-03 08:33N 39°06' W 076°24'1514.8
2016-Jun-03 07:33N 38°51' W 076°24'1918.6
2016-Jun-03 06:33N 38°33' W 076°26'1919.1
2016-Jun-03 05:33N 38°15' W 076°16'1918.7
2016-Jun-03 04:33N 37°57' W 076°10'1817.9
2016-Jun-03 03:32N 37°39' W 076°08'1717.0
2016-Jun-03 02:33N 37°22' W 076°05'1918.0
2016-Jun-03 01:29N 37°03' W 076°05'1213.2
2016-Jun-03 00:33N 36°55' W 075°54'1110.8
2016-Jun-02 23:33N 36°49' W 075°42'10011.1
2016-Jun-02 14:28N 38°11' W 074°29'1312.8
2016-Jun-02 13:28N 38°22' W 074°20'1312.6
2016-Jun-02 12:23N 38°35' W 074°14'1112.5
2016-Jun-02 11:31N 38°46' W 074°11'1212.5
2016-Jun-02 10:33N 38°57' W 074°07'1312.6
2016-Jun-02 09:33N 39°09' W 074°00'1312.5
2016-Jun-02 08:33N 39°21' W 073°57'1312.5
2016-Jun-02 07:33N 39°33' W 073°54'1312.6
2016-Jun-02 06:33N 39°46' W 073°52'1312.5
2016-Jun-02 05:33N 39°58' W 073°50'1312.6
2016-Jun-02 04:34N 40°11' W 073°50'1212.4
2016-Jun-02 03:33N 40°23' W 073°49'1211.8
2016-Jun-02 02:34N 40°31' W 073°60'10 9.8
2016-Jun-02 01:32N 40°39' W 074°09'2 2.2
2016-Jun-02 00:26N 40°41' W 074°09'0 0.0
2016-Jun-01 23:23N 40°41' W 074°09'0 0.0
2016-Jun-01 21:32N 40°41' W 074°09'0 0.0
2016-Jun-01 20:29N 40°41' W 074°09'0 0.0
2016-Jun-01 19:33N 40°41' W 074°09'0 0.0
2016-Jun-01 18:33N 40°41' W 074°09'0 0.0
2016-Jun-01 17:33N 40°41' W 074°09'0 0.0
2016-Jun-01 16:33N 40°41' W 074°09'0 0.0
2016-Jun-01 15:33N 40°41' W 074°09'0 0.0
2016-Jun-01 14:33N 40°41' W 074°09'0 0.0
2016-Jun-01 13:33N 40°41' W 074°09'0 0.0
2016-Jun-01 12:33N 40°41' W 074°09'0 0.0
2016-Jun-01 11:33N 40°41' W 074°09'0 0.4
2016-Jun-01 10:33N 40°41' W 074°08'4 4.3
2016-Jun-01 09:34N 40°39' W 074°03'1211.9
2016-Jun-01 08:33N 40°29' W 073°54'9 9.3
2016-Jun-01 07:33N 40°24' W 073°44'1716.9
2016-Jun-01 06:33N 40°15' W 073°25'1818.1
2016-Jun-01 05:33N 40°02' W 073°08'1818.5
2016-Jun-01 04:33N 39°47' W 072°55'  

Dump ship's entire track history